createdAt,value
2018-10-09T00:02:01.751Z,12.34
2018-10-09T00:04:31.079Z,12.35
2018-10-09T00:07:00.278Z,12.36
2018-10-09T00:09:29.482Z,12.30
2018-10-09T00:11:58.728Z,12.36
2018-10-09T00:14:27.931Z,12.35
2018-10-09T00:16:56.959Z,12.40
2018-10-09T00:19:26.164Z,12.34
2018-10-09T00:21:55.356Z,12.21
2018-10-09T00:24:24.330Z,12.16
2018-10-09T00:26:53.295Z,12.13
2018-10-09T00:29:22.631Z,12.10
2018-10-09T00:31:51.952Z,12.08
2018-10-09T00:34:21.396Z,12.04
2018-10-09T00:36:50.572Z,11.99
2018-10-09T00:39:19.677Z,11.93
2018-10-09T00:41:49.035Z,11.84
2018-10-09T00:44:17.995Z,11.80
2018-10-09T00:46:47.338Z,11.71
2018-10-09T00:49:16.397Z,11.78
2018-10-09T00:51:45.603Z,11.87
2018-10-09T00:54:14.839Z,11.93
2018-10-09T00:56:43.753Z,11.84
2018-10-09T00:59:13.143Z,11.80
2018-10-09T01:01:42.147Z,11.78
2018-10-09T01:04:11.240Z,11.77
2018-10-09T01:06:40.628Z,11.78
2018-10-09T01:09:10.162Z,11.78
2018-10-09T01:11:39.435Z,11.81
2018-10-09T01:14:08.899Z,11.81
2018-10-09T01:16:38.257Z,11.78
2018-10-09T01:19:07.626Z,11.86
2018-10-09T01:21:37.043Z,11.87
2018-10-09T01:24:06.011Z,11.84
2018-10-09T01:26:35.212Z,11.84
2018-10-09T01:29:04.486Z,11.84
2018-10-09T01:31:33.699Z,11.83
2018-10-09T01:34:02.884Z,11.86
2018-10-09T01:36:32.082Z,11.82
2018-10-09T01:39:01.070Z,11.71
2018-10-09T01:41:30.017Z,11.80
2018-10-09T01:43:59.216Z,11.82
2018-10-09T01:46:28.458Z,11.80
2018-10-09T01:48:57.962Z,11.77
2018-10-09T01:51:27.416Z,11.76
2018-10-09T01:53:56.351Z,11.71
2018-10-09T01:56:25.164Z,11.65
2018-10-09T01:58:54.065Z,11.62
2018-10-09T02:01:23.327Z,11.58
2018-10-09T02:03:52.684Z,11.53
2018-10-09T02:06:21.728Z,11.45
2018-10-09T02:08:50.718Z,11.39
2018-10-09T02:11:19.914Z,11.33
2018-10-09T02:13:49.068Z,11.28
2018-10-09T02:16:18.234Z,11.26
2018-10-09T02:18:47.621Z,11.23
2018-10-09T02:21:16.927Z,11.24
2018-10-09T02:23:46.207Z,11.30
2018-10-09T02:26:15.561Z,11.41
2018-10-09T02:28:44.857Z,11.47
2018-10-09T02:31:14.035Z,11.54
2018-10-09T02:33:43.318Z,11.64
2018-10-09T02:36:12.410Z,11.81
2018-10-09T02:38:41.843Z,11.98
2018-10-09T02:41:11.202Z,12.08
2018-10-09T02:43:40.615Z,12.14
2018-10-09T02:46:09.896Z,12.26
2018-10-09T02:48:39.323Z,12.31
2018-10-09T02:51:08.251Z,12.33
2018-10-09T02:53:37.122Z,12.40
2018-10-09T02:56:06.306Z,12.40
2018-10-09T02:58:35.460Z,12.33
2018-10-09T03:01:04.828Z,12.33
2018-10-09T03:03:33.782Z,12.45
2018-10-09T03:06:02.856Z,12.50
2018-10-09T03:08:32.228Z,12.48
2018-10-09T03:11:01.459Z,12.48
2018-10-09T03:13:30.482Z,12.42
2018-10-09T03:15:59.811Z,12.33
2018-10-09T03:18:29.096Z,12.36
2018-10-09T03:20:58.510Z,12.40
2018-10-09T03:23:27.747Z,12.16
2018-10-09T03:25:56.986Z,12.20
2018-10-09T03:28:26.340Z,12.22
2018-10-09T03:30:55.339Z,12.22
2018-10-09T03:33:24.439Z,12.14
2018-10-09T03:35:53.674Z,12.16
2018-10-09T03:38:22.914Z,12.11
2018-10-09T03:40:52.323Z,11.98
2018-10-09T03:43:21.662Z,12.00
2018-10-09T03:45:50.781Z,11.92
2018-10-09T03:48:19.697Z,11.87
2018-10-09T03:50:48.955Z,11.91
2018-10-09T03:53:18.258Z,11.88
2018-10-09T03:55:47.773Z,11.82
2018-10-09T03:58:16.950Z,11.75
2018-10-09T04:00:46.251Z,11.67
2018-10-09T04:03:15.651Z,11.67
2018-10-09T04:05:44.989Z,11.62
2018-10-09T04:08:14.166Z,11.42
2018-10-09T04:10:43.471Z,11.41
2018-10-09T04:13:12.865Z,11.56
2018-10-09T04:15:42.130Z,11.48
2018-10-09T04:18:11.460Z,11.45
2018-10-09T04:20:40.851Z,11.47
2018-10-09T04:23:10.194Z,11.53
2018-10-09T04:25:39.563Z,11.45
2018-10-09T04:28:08.819Z,11.43
2018-10-09T04:30:37.803Z,11.42
2018-10-09T04:33:07.107Z,11.37
2018-10-09T04:35:36.471Z,11.42
2018-10-09T04:38:05.666Z,11.52
2018-10-09T04:40:34.946Z,11.59
2018-10-09T04:43:04.206Z,11.69
2018-10-09T04:45:33.471Z,11.71
2018-10-09T04:48:02.468Z,11.79
2018-10-09T04:50:31.939Z,11.76
2018-10-09T04:53:01.161Z,11.69
2018-10-09T04:55:30.535Z,11.70
2018-10-09T04:57:59.743Z,11.70
2018-10-09T05:00:28.909Z,11.68
2018-10-09T05:02:58.142Z,11.68
2018-10-09T05:05:27.375Z,11.73
2018-10-09T05:07:56.294Z,11.76
2018-10-09T05:10:25.511Z,11.81
2018-10-09T05:12:54.925Z,11.80
2018-10-09T05:15:24.167Z,11.91
2018-10-09T05:17:53.707Z,11.93
2018-10-09T05:20:23.035Z,11.79
2018-10-09T05:22:52.348Z,11.92
2018-10-09T05:25:21.734Z,11.94
2018-10-09T05:27:50.623Z,12.02
2018-10-09T05:30:19.727Z,11.99
2018-10-09T05:32:49.116Z,11.93
2018-10-09T05:35:18.452Z,12.08
2018-10-09T05:37:47.898Z,12.09
2018-10-09T05:40:16.840Z,12.15
2018-10-09T05:42:45.771Z,12.24
2018-10-09T05:45:14.651Z,12.28
2018-10-09T05:47:43.787Z,12.45
2018-10-09T05:50:13.135Z,12.51
2018-10-09T05:52:42.312Z,12.56
2018-10-09T05:55:11.576Z,12.63
2018-10-09T05:57:40.883Z,12.72
2018-10-09T06:00:10.614Z,12.89
2018-10-09T06:02:39.808Z,13.06
2018-10-09T06:05:09.126Z,13.20
2018-10-09T06:07:38.593Z,13.33
2018-10-09T06:10:09.131Z,13.35
2018-10-09T06:12:38.420Z,13.47
2018-10-09T06:15:07.388Z,13.63
2018-10-09T06:17:36.451Z,13.63
2018-10-09T06:20:05.574Z,13.67
2018-10-09T06:22:34.808Z,13.81
2018-10-09T06:25:04.191Z,13.95
2018-10-09T06:27:33.111Z,14.02
2018-10-09T06:30:02.555Z,14.17
2018-10-09T06:32:31.433Z,14.24
2018-10-09T06:35:00.682Z,14.22
2018-10-09T06:37:29.867Z,14.21
2018-10-09T06:39:58.870Z,14.22
2018-10-09T06:42:28.147Z,14.29
2018-10-09T06:44:57.147Z,14.31
2018-10-09T06:47:26.216Z,14.37
2018-10-09T06:49:55.679Z,14.49
2018-10-09T06:52:25.011Z,14.51
2018-10-09T06:54:54.428Z,14.61
2018-10-09T06:57:23.359Z,14.69
2018-10-09T06:59:52.748Z,14.75
2018-10-09T07:02:21.859Z,14.82
2018-10-09T07:04:51.196Z,14.89
2018-10-09T07:07:20.552Z,14.92
2018-10-09T07:09:49.995Z,15.01
2018-10-09T07:12:19.282Z,15.10
2018-10-09T07:14:48.460Z,15.29
2018-10-09T07:17:17.690Z,15.36
2018-10-09T07:19:47.001Z,15.46
2018-10-09T07:22:16.191Z,15.61
2018-10-09T07:24:45.336Z,15.80
2018-10-09T07:27:14.326Z,15.98
2018-10-09T07:29:43.628Z,16.17
2018-10-09T07:32:12.628Z,16.30
2018-10-09T07:34:41.660Z,16.37
2018-10-09T07:37:10.842Z,16.44
2018-10-09T07:39:40.002Z,16.45
2018-10-09T07:42:09.258Z,16.55
2018-10-09T07:44:38.393Z,16.62
2018-10-09T07:47:07.752Z,16.74
2018-10-09T07:49:37.098Z,16.73
2018-10-09T07:52:06.449Z,16.74
2018-10-09T07:54:35.684Z,16.73
2018-10-09T07:57:04.964Z,16.76
2018-10-09T07:59:34.150Z,16.87
2018-10-09T08:02:03.191Z,16.98
2018-10-09T08:04:32.216Z,17.09
2018-10-09T08:07:01.268Z,17.20
2018-10-09T08:09:30.580Z,17.21
2018-10-09T08:11:59.871Z,17.31
2018-10-09T08:14:29.308Z,17.41
2018-10-09T08:16:58.369Z,17.47
2018-10-09T08:19:27.608Z,17.44
2018-10-09T08:21:56.712Z,17.49
2018-10-09T08:24:25.923Z,17.57
2018-10-09T08:26:55.252Z,17.66
2018-10-09T08:29:24.612Z,17.82
2018-10-09T08:31:53.860Z,17.90
2018-10-09T08:34:23.115Z,17.98
2018-10-09T08:36:52.068Z,18.07
2018-10-09T08:39:21.032Z,18.22
2018-10-09T08:41:50.385Z,18.33
2018-10-09T08:44:19.797Z,18.34
2018-10-09T08:46:49.255Z,18.47
2018-10-09T08:49:18.587Z,18.63
2018-10-09T08:51:48.100Z,18.78
2018-10-09T08:54:17.370Z,18.84
2018-10-09T08:56:46.668Z,18.90
2018-10-09T08:59:15.804Z,19.02
2018-10-09T09:01:44.688Z,19.12
2018-10-09T09:04:13.606Z,19.21
2018-10-09T09:06:42.737Z,19.33
2018-10-09T09:09:12.478Z,19.28
2018-10-09T09:11:41.662Z,19.36
2018-10-09T09:14:10.708Z,19.45
2018-10-09T09:16:40.016Z,19.43
2018-10-09T09:19:09.213Z,19.51
2018-10-09T09:21:38.039Z,19.57
2018-10-09T09:24:07.223Z,19.67
2018-10-09T09:26:36.527Z,19.65
2018-10-09T09:29:05.942Z,19.57
2018-10-09T09:31:35.141Z,19.54
2018-10-09T09:34:04.095Z,19.60
2018-10-09T09:36:33.076Z,19.74
2018-10-09T09:39:02.008Z,19.88
2018-10-09T09:41:30.908Z,20.03
2018-10-09T09:43:59.775Z,20.25
2018-10-09T09:46:28.791Z,20.55
2018-10-09T09:48:57.763Z,20.85
2018-10-09T09:51:26.784Z,21.11
2018-10-09T09:53:55.712Z,21.18
2018-10-09T09:56:24.635Z,21.29
2018-10-09T09:58:53.671Z,21.37
2018-10-09T10:01:26.559Z,21.63
2018-10-09T10:03:55.483Z,22.12
2018-10-09T10:06:24.429Z,22.78
2018-10-09T10:08:53.355Z,23.46
2018-10-09T10:11:22.328Z,24.37
2018-10-09T10:13:51.310Z,25.22
2018-10-09T10:16:20.745Z,26.31
2018-10-09T10:18:49.629Z,27.36
2018-10-09T10:21:19.143Z,28.43
2018-10-09T10:23:48.064Z,29.31
2018-10-09T10:26:17.047Z,29.78
2018-10-09T10:28:46.004Z,29.70
2018-10-09T10:31:14.941Z,29.32
2018-10-09T10:33:44.142Z,29.58
2018-10-09T10:36:13.171Z,29.98
2018-10-09T10:38:42.181Z,30.43
2018-10-09T10:41:11.131Z,31.11
2018-10-09T10:43:39.999Z,31.69
2018-10-09T10:46:09.771Z,32.04
2018-10-09T10:48:48.462Z,32.35
2018-10-09T10:51:17.387Z,32.30
2018-10-09T10:53:46.440Z,32.53
2018-10-09T10:56:15.324Z,32.96
2018-10-09T10:58:44.398Z,33.26
2018-10-09T11:01:13.359Z,33.45
2018-10-09T11:03:42.391Z,33.64
2018-10-09T11:06:11.226Z,33.76
2018-10-09T11:08:40.244Z,34.23
2018-10-09T11:11:09.201Z,34.17
2018-10-09T11:13:38.119Z,34.58
2018-10-09T11:16:07.700Z,34.95
2018-10-09T11:18:36.728Z,35.57
2018-10-09T11:21:05.801Z,36.27
2018-10-09T11:23:34.932Z,36.36
2018-10-09T11:26:03.982Z,36.74
2018-10-09T11:28:33.018Z,37.69
2018-10-09T11:31:02.023Z,38.80
2018-10-09T11:33:31.035Z,39.86
2018-10-09T11:35:59.965Z,40.57
2018-10-09T11:38:28.855Z,40.96
2018-10-09T11:40:57.844Z,41.12
2018-10-09T11:43:26.856Z,42.03
2018-10-09T11:45:56.723Z,42.85
2018-10-09T11:48:25.605Z,42.78
2018-10-09T11:50:54.471Z,43.20
2018-10-09T11:53:23.349Z,43.79
2018-10-09T11:55:52.279Z,43.89
2018-10-09T11:58:21.369Z,44.00
2018-10-09T12:00:51.911Z,44.15
2018-10-09T12:03:20.936Z,44.52
2018-10-09T12:05:50.002Z,44.39
2018-10-09T12:08:18.933Z,44.66
2018-10-09T12:10:47.945Z,44.18
2018-10-09T12:13:16.885Z,43.73
2018-10-09T12:15:45.782Z,42.62
2018-10-09T12:18:14.776Z,42.29
2018-10-09T12:20:43.722Z,41.02
2018-10-09T12:23:12.663Z,38.27
2018-10-09T12:25:41.583Z,38.92
2018-10-09T12:28:10.485Z,39.66
2018-10-09T12:30:39.405Z,40.01
2018-10-09T12:33:08.359Z,38.30
2018-10-09T12:35:37.247Z,37.68
2018-10-09T12:38:06.312Z,37.93
2018-10-09T12:40:35.190Z,38.56
2018-10-09T12:43:04.180Z,39.42
2018-10-09T12:45:33.049Z,39.07
2018-10-09T12:48:01.996Z,38.55
2018-10-09T12:50:30.883Z,38.85
2018-10-09T12:52:59.758Z,38.89
2018-10-09T12:55:28.668Z,38.72
2018-10-09T12:57:57.667Z,37.94
2018-10-09T13:00:26.587Z,37.62
2018-10-09T13:02:55.514Z,37.91
2018-10-09T13:05:24.464Z,36.69
2018-10-09T13:07:53.466Z,34.78
2018-10-09T13:10:22.471Z,33.16
2018-10-09T13:12:51.403Z,31.81
2018-10-09T13:15:20.447Z,28.39
2018-10-09T13:17:49.492Z,28.52
2018-10-09T13:20:18.504Z,27.84
2018-10-09T13:22:47.535Z,27.96
2018-10-09T13:25:16.873Z,27.24
2018-10-09T13:27:45.729Z,26.07
2018-10-09T13:30:14.704Z,25.83
2018-10-09T13:32:44.091Z,26.11
2018-10-09T13:35:12.967Z,25.95
2018-10-09T13:37:42.297Z,25.77
2018-10-09T13:40:11.536Z,25.46
2018-10-09T13:42:40.339Z,25.29
2018-10-09T13:45:09.333Z,25.10
2018-10-09T13:47:38.360Z,24.17
2018-10-09T13:50:07.464Z,24.26
2018-10-09T13:52:36.452Z,24.17
2018-10-09T13:55:05.480Z,23.95
2018-10-09T13:57:35.045Z,24.04
2018-10-09T14:00:04.251Z,23.93
2018-10-09T14:02:33.643Z,23.94
2018-10-09T14:05:02.669Z,23.92
2018-10-09T14:07:31.992Z,23.90
2018-10-09T14:10:01.439Z,23.88
2018-10-09T14:12:30.444Z,23.71
2018-10-09T14:14:59.896Z,23.52
2018-10-09T14:17:28.938Z,23.16
2018-10-09T14:19:58.028Z,23.27
2018-10-09T14:22:27.252Z,23.17
2018-10-09T14:24:56.419Z,23.00
2018-10-09T14:27:25.759Z,22.83
2018-10-09T14:29:54.730Z,22.45
2018-10-09T14:32:23.651Z,22.54
2018-10-09T14:34:52.715Z,22.49
2018-10-09T14:37:21.940Z,22.52
2018-10-09T14:39:50.841Z,22.53
2018-10-09T14:42:20.491Z,22.45
2018-10-09T14:44:49.482Z,22.26
2018-10-09T14:47:18.459Z,21.90
2018-10-09T14:49:47.576Z,21.96
2018-10-09T14:52:16.457Z,21.84
2018-10-09T14:54:45.495Z,21.83
2018-10-09T14:57:14.491Z,21.77
2018-10-09T14:59:43.477Z,21.55
2018-10-09T15:02:12.480Z,21.47
2018-10-09T15:04:41.424Z,21.26
2018-10-09T15:07:10.514Z,21.28
2018-10-09T15:09:39.487Z,21.20
2018-10-09T15:12:08.499Z,20.88
2018-10-09T15:14:37.593Z,20.88
2018-10-09T15:17:06.704Z,20.88
2018-10-09T15:19:35.780Z,20.81
2018-10-09T15:22:04.723Z,20.65
2018-10-09T15:24:33.656Z,20.51
2018-10-09T15:27:02.596Z,20.49
2018-10-09T15:29:31.603Z,20.44
2018-10-09T15:32:00.640Z,20.37
2018-10-09T15:34:29.526Z,20.24
2018-10-09T15:36:58.553Z,20.19
2018-10-09T15:39:27.448Z,20.05
2018-10-09T15:41:56.501Z,19.97
2018-10-09T15:44:25.452Z,19.84
2018-10-09T15:46:54.371Z,19.65
2018-10-09T15:49:23.363Z,19.48
2018-10-09T15:51:52.276Z,19.45
2018-10-09T15:54:21.155Z,19.27
2018-10-09T15:56:50.139Z,19.15
2018-10-09T15:59:19.195Z,19.04
2018-10-09T16:01:48.185Z,18.93
2018-10-09T16:04:17.227Z,18.93
2018-10-09T16:06:46.228Z,18.74
2018-10-09T16:09:15.215Z,18.78
2018-10-09T16:11:44.108Z,18.64
2018-10-09T16:14:13.081Z,18.59
2018-10-09T16:16:42.079Z,18.54
2018-10-09T16:19:12.029Z,18.40
2018-10-09T16:21:41.334Z,18.26
2018-10-09T16:24:10.596Z,18.13
2018-10-09T16:26:39.595Z,18.02
2018-10-09T16:29:08.483Z,17.91
2018-10-09T16:31:37.464Z,17.86
2018-10-09T16:34:06.500Z,17.84
2018-10-09T16:36:35.380Z,17.78
2018-10-09T16:39:05.856Z,17.74
2018-10-09T16:41:34.871Z,17.67
2018-10-09T16:44:03.931Z,17.63
2018-10-09T16:46:33.340Z,17.60
2018-10-09T16:49:02.290Z,17.56
2018-10-09T16:51:31.554Z,17.48
2018-10-09T16:54:00.650Z,17.36
2018-10-09T16:56:29.663Z,17.29
2018-10-09T16:58:58.532Z,17.27
2018-10-09T17:01:27.471Z,17.28
2018-10-09T17:03:57.009Z,17.21
2018-10-09T17:06:26.008Z,17.18
2018-10-09T17:08:55.010Z,17.12
2018-10-09T17:11:23.971Z,16.95
2018-10-09T17:13:52.948Z,16.85
2018-10-09T17:16:21.808Z,16.79
2018-10-09T17:18:50.769Z,16.74
2018-10-09T17:21:19.855Z,16.67
2018-10-09T17:23:48.862Z,16.68
2018-10-09T17:26:17.819Z,16.65
2018-10-09T17:28:46.848Z,16.60
2018-10-09T17:31:15.775Z,16.58
2018-10-09T17:33:44.747Z,16.55
2018-10-09T17:36:13.620Z,16.54
2018-10-09T17:38:42.711Z,16.44
2018-10-09T17:41:11.702Z,16.42
2018-10-09T17:43:40.594Z,16.34
2018-10-09T17:46:09.659Z,16.27
2018-10-09T17:48:38.609Z,16.20
2018-10-09T17:51:07.570Z,16.22
2018-10-09T17:53:36.552Z,16.23
2018-10-09T17:56:05.863Z,16.19
2018-10-09T17:58:35.111Z,16.20
2018-10-09T18:01:04.068Z,16.16
2018-10-09T18:03:33.097Z,16.10
2018-10-09T18:06:02.035Z,16.10
2018-10-09T18:08:30.987Z,16.03
2018-10-09T18:11:00.063Z,16.02
2018-10-09T18:13:29.114Z,15.94
2018-10-09T18:15:58.068Z,15.98
2018-10-09T18:18:26.994Z,15.95
2018-10-09T18:20:56.912Z,16.21
2018-10-09T18:23:26.007Z,16.44
2018-10-09T18:25:54.944Z,16.70
2018-10-09T18:28:23.900Z,16.86
2018-10-09T18:30:52.877Z,16.96
2018-10-09T18:33:22.093Z,16.98
2018-10-09T18:35:51.542Z,17.04
2018-10-09T18:38:20.527Z,17.10
2018-10-09T18:40:49.740Z,17.11
2018-10-09T18:43:18.564Z,17.12
2018-10-09T18:45:47.487Z,17.18
2018-10-09T18:48:16.333Z,17.29
2018-10-09T18:50:45.323Z,17.28
2018-10-09T18:53:14.419Z,17.30
2018-10-09T18:55:43.484Z,17.34
2018-10-09T18:58:12.404Z,17.28
2018-10-09T19:00:41.331Z,17.32
2018-10-09T19:03:10.207Z,17.35
2018-10-09T19:05:39.159Z,17.38
2018-10-09T19:08:08.195Z,17.36
2018-10-09T19:10:37.221Z,17.33
2018-10-09T19:13:06.179Z,17.33
2018-10-09T19:15:35.193Z,17.27
2018-10-09T19:18:04.195Z,17.35
2018-10-09T19:20:33.224Z,17.31
2018-10-09T19:23:02.224Z,17.20
2018-10-09T19:25:31.088Z,17.31
2018-10-09T19:28:00.106Z,17.33
2018-10-09T19:33:12.687Z,17.22
2018-10-09T19:35:41.579Z,17.02
2018-10-09T19:38:10.583Z,17.19
2018-10-09T19:40:39.626Z,17.15
2018-10-09T19:43:08.513Z,17.19
2018-10-09T19:45:37.506Z,17.14
2018-10-09T19:48:06.492Z,17.06
2018-10-09T19:50:35.449Z,17.12
2018-10-09T19:53:04.495Z,16.97
2018-10-09T19:55:33.507Z,16.71
2018-10-09T19:58:02.372Z,16.51
2018-10-09T20:00:31.268Z,16.29
2018-10-09T20:03:00.144Z,16.19
2018-10-09T20:05:29.195Z,16.08
2018-10-09T20:07:58.119Z,16.27
2018-10-09T20:10:26.995Z,16.31
2018-10-09T20:12:55.971Z,16.36
2018-10-09T20:15:24.876Z,16.35
2018-10-09T20:17:53.920Z,16.28
2018-10-09T20:20:23.061Z,16.23
2018-10-09T20:22:52.128Z,16.19
2018-10-09T20:25:21.071Z,16.09
2018-10-09T20:27:50.050Z,15.90
2018-10-09T20:30:18.935Z,15.83
2018-10-09T20:32:47.791Z,15.73
2018-10-09T20:35:16.767Z,15.63
2018-10-09T20:37:45.717Z,15.59
2018-10-09T20:40:14.631Z,15.48
2018-10-09T20:42:43.484Z,15.47
2018-10-09T20:45:12.580Z,15.40
2018-10-09T20:47:43.458Z,15.35
2018-10-09T20:50:13.226Z,15.30
2018-10-09T20:52:42.216Z,15.23
2018-10-09T20:55:11.264Z,15.17
2018-10-09T20:57:40.189Z,15.24
2018-10-09T21:00:09.412Z,15.31
2018-10-09T21:02:38.490Z,15.19
2018-10-09T21:05:07.845Z,15.04
2018-10-09T21:07:37.191Z,14.89
2018-10-09T21:10:06.491Z,14.84
2018-10-09T21:12:35.827Z,14.75
2018-10-09T21:15:05.551Z,14.63
2018-10-09T21:17:34.706Z,14.53
2018-10-09T21:20:04.044Z,14.49
2018-10-09T21:22:33.278Z,14.35
2018-10-09T21:25:02.444Z,14.42
2018-10-09T21:27:31.744Z,14.36
2018-10-09T21:30:01.064Z,14.23
2018-10-09T21:32:30.188Z,14.12
2018-10-09T21:34:59.211Z,14.06
2018-10-09T21:37:28.428Z,14.02
2018-10-09T21:39:57.620Z,13.99
2018-10-09T21:42:26.427Z,13.97
2018-10-09T21:44:55.494Z,13.86
2018-10-09T21:47:24.330Z,13.85
2018-10-09T21:49:53.483Z,13.88
2018-10-09T21:52:22.426Z,13.83
2018-10-09T21:54:51.279Z,13.82
2018-10-09T21:57:20.452Z,14.01
2018-10-09T21:59:49.590Z,14.12
2018-10-09T22:02:18.395Z,14.03
2018-10-09T22:04:47.253Z,13.98
2018-10-09T22:07:17.710Z,13.97
2018-10-09T22:09:47.202Z,13.96
2018-10-09T22:12:16.025Z,13.86
2018-10-09T22:14:45.155Z,13.75
2018-10-09T22:17:14.311Z,13.83
2018-10-09T22:19:43.468Z,13.75
2018-10-09T22:22:12.438Z,13.69
2018-10-09T22:24:41.625Z,13.59
2018-10-09T22:27:10.555Z,13.60
2018-10-09T22:29:39.711Z,13.69
2018-10-09T22:32:08.715Z,13.65
2018-10-09T22:34:37.871Z,13.55
2018-10-09T22:37:07.096Z,13.46
2018-10-09T22:39:36.339Z,13.41
2018-10-09T22:42:05.160Z,13.32
2018-10-09T22:44:34.408Z,13.21
2018-10-09T22:47:03.673Z,13.11
2018-10-09T22:49:32.917Z,13.06
2018-10-09T22:52:02.022Z,13.07
2018-10-09T22:54:31.428Z,13.01
2018-10-09T22:57:00.823Z,13.04
2018-10-09T22:59:29.780Z,13.05
2018-10-09T23:01:59.221Z,13.14
2018-10-09T23:04:28.408Z,13.14
2018-10-09T23:06:57.807Z,13.13
2018-10-09T23:09:27.021Z,13.04
2018-10-09T23:11:56.311Z,12.97
2018-10-09T23:14:25.564Z,12.93
2018-10-09T23:16:54.826Z,12.87
2018-10-09T23:19:24.263Z,12.80
2018-10-09T23:21:53.687Z,12.72
2018-10-09T23:24:22.859Z,12.65
2018-10-09T23:26:52.108Z,12.63
2018-10-09T23:29:21.568Z,12.60
2018-10-09T23:31:50.751Z,12.58
2018-10-09T23:34:20.095Z,12.48
2018-10-09T23:36:49.359Z,12.42
2018-10-09T23:39:18.714Z,12.51
2018-10-09T23:41:47.615Z,12.54
2018-10-09T23:44:16.642Z,12.59
2018-10-09T23:46:45.728Z,12.47
2018-10-09T23:49:14.872Z,12.41
2018-10-09T23:51:44.068Z,12.35
2018-10-09T23:54:13.427Z,12.26
2018-10-09T23:56:42.645Z,12.22
2018-10-09T23:59:11.910Z,12.16
